Terminal Aerodrome Forecast
Issued by NWS Duluth, MN

Home | Current Version | Previous Version | Text Only | Print | Product List | Glossary On
Versions: 1 2 3 4 5 6 7 8 9 10 11 12 13 14 15 16
257
FTUS43 KDLH 091738
TAFDLH
TAF
KDLH 091738Z 0918/1018 33013G19KT P6SM SCT021
     FM092200 33011KT P6SM SKC
     FM100700 35006KT P6SM SKC=

USA.gov is the U.S. government's official web portal to all federal, state and local government web resources and services.